Kamloops, Canada
Current Conditions -  °F | °C
As of 5:00 AM on Friday 24 Oct 2014 (Local Time) from CYKA Reporting Station
Clear Clear  
Wind Chill: 37°   Ceiling: Unl
Heat Index: 37°   Visibility: 40mi
Dew Point: 32°   Wind: 3mph
Humidity: 81%   Direction: NA
Pressure: 30.01"   Gusts: NA
Location:  50.68°N, 120.34°W
Report Text: CYKA 241200Z VRB03KT 40SM SKC 03/00 A3001 RMK SLP174
Loading
Personal Weather Stations






























Interactive Weather Map
Tropical Storm Tracking
New forecast layout! Learn more

10-Day Weather Forecast

Advertisements
Track Severe Weather on mobile